Nanseimaru — JD3160 — position and weather

sailwx.info

Track history (hours):
 
Tides and Currents Weather Stations Pressure Air Temp Water Temp Dewpoint Dewpoint Depression Visibility Wind Speed Wind Dir Waves Ship Positions

Nanseimaru

Last reported at 2017-Nov-20 00:21 UTC. Time now 2017-Nov-22 16:43 UTC.
Position N 34°34' E 135°27'.

Length 74 m; draft 3.3 m.

Type: Cargo ship. MMSI: 431002213.

Date/timePositionNaut miles runAvg speedWind from/ knotsBaromVisibWave heightAir tempDewpointWater temp
2017-Nov-20 00:21N 34°34' E 135°27'0 0.0
2017-Nov-19 23:27N 34°34' E 135°27'0 0.1
2017-Nov-19 22:33N 34°34' E 135°27'0 0.2
2017-Nov-19 22:21N 34°34' E 135°27'0 0.1
2017-Nov-19 21:45N 34°34' E 135°27'0 0.1
2017-Nov-19 21:21N 34°34' E 135°27'0 0.0
2017-Nov-19 20:57N 34°34' E 135°27'0 0.1
2017-Nov-19 20:18N 34°34' E 135°27'0 0.1
2017-Nov-19 19:42N 34°34' E 135°27'0 0.2
2017-Nov-19 19:30N 34°34' E 135°27'0 0.1
2017-Nov-19 19:00N 34°34' E 135°27'0 0.0
2017-Nov-19 16:48N 34°34' E 135°27'0 0.2
2017-Nov-19 16:24N 34°34' E 135°27'0 0.1
2017-Nov-19 15:54N 34°34' E 135°27'0 0.2
2017-Nov-19 15:30N 34°34' E 135°27'0 0.1
2017-Nov-19 15:00N 34°34' E 135°27'0 0.0
2017-Nov-19 14:30N 34°34' E 135°27'0 0.0
2017-Nov-19 13:36N 34°34' E 135°27'0 0.5
2017-Nov-19 13:30N 34°34' E 135°27'0 0.1
2017-Nov-19 13:00N 34°34' E 135°27'0 0.1
2017-Nov-19 12:30N 34°34' E 135°27'1 1.1
2017-Nov-19 12:00N 34°35' E 135°27'1 0.0
2017-Nov-17 22:57N 34°35' E 135°27'3 6.4
2017-Nov-17 22:30N 34°36' E 135°24'612.0
2017-Nov-17 22:00N 34°33' E 135°18'713.0
2017-Nov-17 21:30N 34°28' E 135°12'713.5
2017-Nov-17 20:58N 34°22' E 135°07'814.1
2017-Nov-17 20:23N 34°15' E 135°03'513.8
2017-Nov-17 20:01N 34°10' E 135°03'  
2017-Nov-13 01:52N 34°39' E 135°28'0 0.0
2017-Nov-12 15:01N 34°39' E 135°28'0 0.0
2017-Nov-12 15:01N 34°39' E 135°28'1 3.0
2017-Nov-12 14:31N 34°39' E 135°26'611.7
2017-Nov-12 14:00N 34°36' E 135°20'611.9
2017-Nov-12 13:31N 34°31' E 135°15'611.7
2017-Nov-12 12:59N 34°27' E 135°10'611.5
2017-Nov-12 12:29N 34°23' E 135°05'1310.4
2017-Nov-12 11:12N 34°10' E 134°60'224 9.3
2017-Nov-11 11:15N 35°01' E 139°25'411.9
2017-Nov-11 10:55N 35°02' E 139°29'512.4
2017-Nov-11 10:30N 35°05' E 139°34'612.7
2017-Nov-11 10:00N 35°08' E 139°41'612.3
2017-Nov-11 09:30N 35°12' E 139°46'611.6
2017-Nov-11 09:00N 35°18' E 139°44'611.8
2017-Nov-11 08:30N 35°24' E 139°43'612.5
2017-Nov-11 08:00N 35°28' E 139°49'  
Track history (hours):
 
Tides and Currents Weather Stations Pressure Air Temp Water Temp Dewpoint Dewpoint Depression Visibility Wind Speed Wind Dir Waves Ship Positions

Nanseimaru

Last reported at 2017-Nov-20 00:21 UTC. Time now 2017-Nov-22 16:43 UTC.
Position N 34°34' E 135°27'.

Length 74 m; draft 3.3 m.

Type: Cargo ship. MMSI: 431002213.

Date/timePositionNaut miles runAvg speedWind from/ knotsBaromVisibWave heightAir tempDewpointWater temp
2017-Nov-20 00:21N 34°34' E 135°27'0 0.0
2017-Nov-19 23:27N 34°34' E 135°27'0 0.1
2017-Nov-19 22:33N 34°34' E 135°27'0 0.2
2017-Nov-19 22:21N 34°34' E 135°27'0 0.1
2017-Nov-19 21:45N 34°34' E 135°27'0 0.1
2017-Nov-19 21:21N 34°34' E 135°27'0 0.0
2017-Nov-19 20:57N 34°34' E 135°27'0 0.1
2017-Nov-19 20:18N 34°34' E 135°27'0 0.1
2017-Nov-19 19:42N 34°34' E 135°27'0 0.2
2017-Nov-19 19:30N 34°34' E 135°27'0 0.1
2017-Nov-19 19:00N 34°34' E 135°27'0 0.0
2017-Nov-19 16:48N 34°34' E 135°27'0 0.2
2017-Nov-19 16:24N 34°34' E 135°27'0 0.1
2017-Nov-19 15:54N 34°34' E 135°27'0 0.2
2017-Nov-19 15:30N 34°34' E 135°27'0 0.1
2017-Nov-19 15:00N 34°34' E 135°27'0 0.0
2017-Nov-19 14:30N 34°34' E 135°27'0 0.0
2017-Nov-19 13:36N 34°34' E 135°27'0 0.5
2017-Nov-19 13:30N 34°34' E 135°27'0 0.1
2017-Nov-19 13:00N 34°34' E 135°27'0 0.1
2017-Nov-19 12:30N 34°34' E 135°27'1 1.1
2017-Nov-19 12:00N 34°35' E 135°27'1 0.0
2017-Nov-17 22:57N 34°35' E 135°27'3 6.4
2017-Nov-17 22:30N 34°36' E 135°24'612.0
2017-Nov-17 22:00N 34°33' E 135°18'713.0
2017-Nov-17 21:30N 34°28' E 135°12'713.5
2017-Nov-17 20:58N 34°22' E 135°07'814.1
2017-Nov-17 20:23N 34°15' E 135°03'513.8
2017-Nov-17 20:01N 34°10' E 135°03'  
2017-Nov-13 01:52N 34°39' E 135°28'0 0.0
2017-Nov-12 15:01N 34°39' E 135°28'0 0.0
2017-Nov-12 15:01N 34°39' E 135°28'1 3.0
2017-Nov-12 14:31N 34°39' E 135°26'611.7
2017-Nov-12 14:00N 34°36' E 135°20'611.9
2017-Nov-12 13:31N 34°31' E 135°15'611.7
2017-Nov-12 12:59N 34°27' E 135°10'611.5
2017-Nov-12 12:29N 34°23' E 135°05'1310.4
2017-Nov-12 11:12N 34°10' E 134°60'224 9.3
2017-Nov-11 11:15N 35°01' E 139°25'411.9
2017-Nov-11 10:55N 35°02' E 139°29'512.4
2017-Nov-11 10:30N 35°05' E 139°34'612.7
2017-Nov-11 10:00N 35°08' E 139°41'612.3
2017-Nov-11 09:30N 35°12' E 139°46'611.6
2017-Nov-11 09:00N 35°18' E 139°44'611.8
2017-Nov-11 08:30N 35°24' E 139°43'612.5
2017-Nov-11 08:00N 35°28' E 139°49'  

Dump ship's entire track history